Abingdon, United Kingdom
Current Conditions -  °F | °C
As of 4:50 AM on Wednesday 26 Nov 2014 (Local Time) from EGUB Reporting Station
Drizzle Drizzle  
Wind Chill:   Ceiling: 1800
Heat Index:   Visibility: 2.5mi
Dew Point:   Wind: 3mph
Humidity: 93%   Direction: 80°E
Pressure: 29.88"   Gusts: NA
Location:  51.67°N, 1.29°W
Report Text: EGUB 260450Z 08003KT 4000 -DZ FEW008 BKN018 07/06 Q1012 GRN
Loading
Personal Weather Stations






























Interactive Weather Map New forecast layout! Learn more

10-Day Weather Forecast

Advertisements
Track Severe Weather on mobile